Terminal Aerodrome Forecast
Issued by NWS Boston, MA

Home | Current Version | Previous Version | Text Only | Print | Product List | Glossary On
Versions: 1 2 3 4 5 6 7 8 9 10 11 12 13 14 15 16 17 18 19 20 21 22 23 24
000
FTUS41 KBOX 270540
TAFBDL
TAF
KBDL 270540Z 2706/2812 17006KT P6SM BKN120 BKN250
     FM270900 00000KT P6SM BKN090
     FM271500 17004KT P6SM VCSH BKN050
     FM271800 20009KT P6SM VCSH BKN050
     FM272000 19010KT P6SM BKN090
     FM280000 19006KT P6SM BKN100
     FM280900 16004KT 3SM BR SCT200
     FM281100 17004KT P6SM SCT100=

USA.gov is the U.S. government's official web portal to all federal, state and local government web resources and services.